createdAt,value
2019-04-20T00:02:08.337Z,101239.34
2019-04-20T00:04:35.233Z,101241.71
2019-04-20T00:07:02.020Z,101243.81
2019-04-20T00:09:34.626Z,101239.86
2019-04-20T00:12:10.844Z,101237.72
2019-04-20T00:14:36.265Z,101240.48
2019-04-20T00:17:05.138Z,101239.89
2019-04-20T00:19:40.749Z,101245.78
2019-04-20T00:22:14.894Z,101241.09
2019-04-20T00:25:06.647Z,101241.13
2019-04-20T00:27:55.752Z,101245.22
2019-04-20T00:30:28.773Z,101235.00
2019-04-20T00:32:51.251Z,101238.42
2019-04-20T00:35:08.261Z,101236.55
2019-04-20T00:37:38.058Z,101233.41
2019-04-20T00:40:07.874Z,101231.23
2019-04-20T00:42:44.955Z,101214.27
2019-04-20T00:45:16.230Z,101232.48
2019-04-20T00:47:47.808Z,101229.09
2019-04-20T00:50:28.295Z,101234.89
2019-04-20T00:52:55.779Z,101236.16
2019-04-20T00:55:12.862Z,101240.30
2019-04-20T00:57:47.523Z,101234.83
2019-04-20T01:00:33.912Z,101237.56
2019-04-20T01:02:56.915Z,101239.27
2019-04-20T01:05:43.382Z,101238.80
2019-04-20T01:08:12.921Z,101238.52
2019-04-20T01:10:47.250Z,101239.44
2019-04-20T01:13:19.813Z,101233.41
2019-04-20T01:15:52.738Z,101239.58
2019-04-20T01:18:16.581Z,101242.20
2019-04-20T01:20:45.833Z,101237.75
2019-04-20T01:23:17.859Z,101240.78
2019-04-20T01:25:52.005Z,101235.84
2019-04-20T01:28:32.411Z,101238.91
2019-04-20T01:31:01.370Z,101238.34
2019-04-20T01:33:31.818Z,101243.01
2019-04-20T01:36:03.493Z,101237.05
2019-04-20T01:38:34.262Z,101234.48
2019-04-20T01:40:52.706Z,101234.13
2019-04-20T01:43:22.713Z,101230.50
2019-04-20T01:45:59.306Z,101237.26
2019-04-20T01:48:28.722Z,101237.58
2019-04-20T01:51:06.574Z,101237.06
2019-04-20T01:53:44.322Z,101230.82
2019-04-20T01:56:18.136Z,101228.86
2019-04-20T01:59:04.612Z,101226.28
2019-04-20T02:01:56.521Z,101229.31
2019-04-20T02:04:32.294Z,101220.58
2019-04-20T02:07:00.473Z,101222.67
2019-04-20T02:09:31.153Z,101228.18
2019-04-20T02:12:05.042Z,101229.77
2019-04-20T02:14:38.795Z,101233.27
2019-04-20T02:17:11.715Z,101238.68
2019-04-20T02:19:51.014Z,101244.56
2019-04-20T02:22:15.696Z,101237.91
2019-04-20T02:24:34.361Z,101242.80
2019-04-20T02:27:04.161Z,101239.28
2019-04-20T02:30:02.803Z,101235.64
2019-04-20T02:32:29.254Z,101246.05
2019-04-20T02:35:29.921Z,101238.25
2019-04-20T02:38:22.539Z,101236.09
2019-04-20T02:40:51.125Z,101226.84
2019-04-20T02:43:32.921Z,101234.83
2019-04-20T02:45:57.752Z,101227.69
2019-04-20T02:48:21.746Z,101236.20
2019-04-20T02:50:56.228Z,101232.16
2019-04-20T02:55:58.539Z,101231.41
2019-04-20T02:58:22.945Z,101224.73
2019-04-20T03:00:52.748Z,101219.95
2019-04-20T03:03:10.212Z,101231.39
2019-04-20T03:05:39.461Z,101220.16
2019-04-20T03:08:19.120Z,101225.14
2019-04-20T03:10:54.974Z,101219.55
2019-04-20T03:13:18.324Z,101230.25
2019-04-20T03:15:51.866Z,101229.73
2019-04-20T03:18:19.656Z,101228.77
2019-04-20T03:20:52.837Z,101229.11
2019-04-20T03:23:31.320Z,101229.11
2019-04-20T03:26:12.524Z,101226.03
2019-04-20T03:28:54.080Z,101224.06
2019-04-20T03:34:35.747Z,101218.83
2019-04-20T03:36:45.317Z,101221.23
2019-04-20T03:38:57.464Z,101220.61
2019-04-20T03:41:22.505Z,101221.45
2019-04-20T03:43:43.536Z,101224.14
2019-04-20T03:46:17.402Z,101221.11
2019-04-20T03:48:58.610Z,101224.66
2019-04-20T03:51:42.373Z,101222.25
2019-04-20T03:54:38.075Z,101216.47
2019-04-20T03:57:29.372Z,101222.49
2019-04-20T04:00:00.469Z,101226.77
2019-04-20T04:02:57.569Z,101221.15
2019-04-20T04:05:27.472Z,101217.11
2019-04-20T04:07:50.868Z,101216.45
2019-04-20T04:10:28.232Z,101217.11
2019-04-20T04:13:09.605Z,101218.56
2019-04-20T04:15:46.773Z,101219.37
2019-04-20T04:18:17.749Z,101231.22
2019-04-20T04:20:50.008Z,101218.64
2019-04-20T04:23:32.957Z,101221.84
2019-04-20T04:26:04.464Z,101223.20
2019-04-20T04:28:31.167Z,101223.74
2019-04-20T04:31:09.486Z,101221.34
2019-04-20T04:33:55.803Z,101222.07
2019-04-20T04:36:05.851Z,101230.67
2019-04-20T04:38:44.674Z,101230.38
2019-04-20T04:41:13.975Z,101231.73
2019-04-20T04:43:39.734Z,101232.34
2019-04-20T04:45:51.782Z,101233.86
2019-04-20T04:48:28.266Z,101233.68
2019-04-20T04:50:59.061Z,101236.17
2019-04-20T04:53:38.872Z,101239.94
2019-04-20T04:56:00.397Z,101241.29
2019-04-20T04:58:25.666Z,101238.59
2019-04-20T05:01:07.353Z,101237.02
2019-04-20T05:03:44.726Z,101247.37
2019-04-20T05:06:24.745Z,101242.52
2019-04-20T05:08:43.779Z,101252.48
2019-04-20T05:11:08.887Z,101253.63
2019-04-20T05:13:47.955Z,101245.02
2019-04-20T05:16:26.987Z,101248.45
2019-04-20T05:19:02.153Z,101250.73
2019-04-20T05:21:47.658Z,101248.66
2019-04-20T05:24:33.749Z,101254.89
2019-04-20T05:27:32.105Z,101257.80
2019-04-20T05:29:39.822Z,101252.50
2019-04-20T05:32:14.752Z,101256.83
2019-04-20T05:35:07.367Z,101257.47
2019-04-20T05:37:33.381Z,101259.86
2019-04-20T05:40:07.428Z,101264.61
2019-04-20T05:42:35.935Z,101267.52
2019-04-20T05:45:09.066Z,101271.75
2019-04-20T05:47:33.358Z,101268.68
2019-04-20T05:50:01.467Z,101270.66
2019-04-20T05:55:13.128Z,101267.76
2019-04-20T05:57:42.251Z,101269.05
2019-04-20T06:00:17.350Z,101265.13
2019-04-20T06:02:44.132Z,101268.73
2019-04-20T06:05:17.493Z,101277.65
2019-04-20T06:07:48.836Z,101274.67
2019-04-20T06:10:20.771Z,101277.42
2019-04-20T06:12:50.286Z,101279.72
2019-04-20T06:15:42.065Z,101273.53
2019-04-20T06:18:06.701Z,101271.66
2019-04-20T06:21:07.855Z,101275.92
2019-04-20T06:23:42.772Z,101270.09
2019-04-20T06:26:20.759Z,101276.09
2019-04-20T06:28:32.242Z,101276.05
2019-04-20T06:31:09.060Z,101282.98
2019-04-20T06:36:53.684Z,101289.04
2019-04-20T06:39:36.417Z,101290.51
2019-04-20T06:44:33.185Z,101297.19
2019-04-20T06:47:15.825Z,101294.13
2019-04-20T06:49:35.133Z,101309.48
2019-04-20T06:52:20.357Z,101312.02
2019-04-20T06:54:57.967Z,101316.34
2019-04-20T06:57:35.702Z,101313.93
2019-04-20T07:00:07.466Z,101322.90
2019-04-20T07:02:41.538Z,101332.20
2019-04-20T07:07:43.239Z,101330.73
2019-04-20T07:10:14.980Z,101332.56
2019-04-20T07:12:39.875Z,101336.50
2019-04-20T07:14:58.932Z,101336.09
2019-04-20T07:17:54.646Z,101338.66
2019-04-20T07:20:35.104Z,101343.61
2019-04-20T07:23:11.964Z,101345.59
2019-04-20T07:25:31.088Z,101338.03
2019-04-20T07:28:05.441Z,101344.81
2019-04-20T07:30:34.705Z,101330.25
2019-04-20T07:33:04.126Z,101356.70
2019-04-20T07:35:38.778Z,101350.84
2019-04-20T07:40:36.088Z,101363.03
2019-04-20T07:43:04.633Z,101363.60
2019-04-20T07:45:46.229Z,101366.93
2019-04-20T07:50:36.200Z,101375.86
2019-04-20T07:53:08.647Z,101375.47
2019-04-20T07:55:51.750Z,101371.19
2019-04-20T07:58:10.060Z,101375.77
2019-04-20T08:00:55.171Z,101374.34
2019-04-20T08:03:39.090Z,101371.66
2019-04-20T08:06:19.305Z,101371.01
2019-04-20T08:08:57.396Z,101367.88
2019-04-20T08:11:36.083Z,101375.87
2019-04-20T08:14:06.107Z,101367.34
2019-04-20T08:16:49.004Z,101366.63
2019-04-20T08:19:08.201Z,101372.92
2019-04-20T08:21:40.905Z,101363.73
2019-04-20T08:24:07.458Z,101363.53
2019-04-20T08:26:27.203Z,101358.34
2019-04-20T08:29:01.544Z,101352.60
2019-04-20T08:31:47.160Z,101360.30
2019-04-20T08:34:31.317Z,101360.30
2019-04-20T08:37:01.053Z,101365.78
2019-04-20T08:42:00.249Z,101375.96
2019-04-20T08:45:02.969Z,101379.25
2019-04-20T08:47:10.259Z,101381.75
2019-04-20T08:49:35.467Z,101372.41
2019-04-20T08:52:36.729Z,101372.41
2019-04-20T08:54:34.565Z,101369.63
2019-04-20T08:56:54.786Z,101372.91
2019-04-20T08:59:18.927Z,101370.99
2019-04-20T09:01:48.936Z,101366.33
2019-04-20T09:04:22.983Z,101366.88
2019-04-20T09:07:04.058Z,101367.41
2019-04-20T09:09:49.619Z,101366.04
2019-04-20T09:12:40.594Z,101371.23
2019-04-20T09:14:55.294Z,101364.30
2019-04-20T09:17:41.008Z,101363.23
2019-04-20T09:20:16.406Z,101365.13
2019-04-20T09:23:08.115Z,101358.50
2019-04-20T09:26:26.970Z,101352.41
2019-04-20T09:29:13.935Z,101358.14
2019-04-20T09:31:52.013Z,101358.67
2019-04-20T09:34:51.318Z,101355.36
2019-04-20T09:37:29.603Z,101357.80
2019-04-20T09:40:04.762Z,101357.16
2019-04-20T09:42:21.453Z,101364.91
2019-04-20T09:44:55.555Z,101360.25
2019-04-20T09:47:27.471Z,101350.83
2019-04-20T09:50:03.339Z,101359.61
2019-04-20T09:52:38.156Z,101361.05
2019-04-20T09:55:09.466Z,101352.61
2019-04-20T09:57:43.699Z,101350.78
2019-04-20T10:00:12.065Z,101349.11
2019-04-20T10:02:32.495Z,101349.59
2019-04-20T10:04:59.749Z,101346.50
2019-04-20T10:07:33.531Z,101343.59
2019-04-20T10:10:00.351Z,101347.31
2019-04-20T10:12:29.627Z,101349.65
2019-04-20T10:15:06.553Z,101337.46
2019-04-20T10:17:31.857Z,101342.95
2019-04-20T10:20:02.565Z,101334.28
2019-04-20T10:22:32.898Z,101335.64
2019-04-20T10:25:08.755Z,101340.12
2019-04-20T10:27:42.021Z,101336.69
2019-04-20T10:30:12.469Z,101336.56
2019-04-20T10:32:45.621Z,101333.25
2019-04-20T10:35:15.110Z,101325.23
2019-04-20T10:37:49.421Z,101332.40
2019-04-20T10:40:34.455Z,101324.45
2019-04-20T10:42:50.113Z,101327.70
2019-04-20T10:45:21.161Z,101335.20
2019-04-20T10:47:50.804Z,101329.23
2019-04-20T10:50:20.941Z,101329.36
2019-04-20T10:52:50.386Z,101334.27
2019-04-20T10:55:20.746Z,101325.86
2019-04-20T10:57:51.187Z,101330.06
2019-04-20T11:00:26.150Z,101329.78
2019-04-20T11:02:55.514Z,101333.25
2019-04-20T11:05:24.737Z,101329.13
2019-04-20T11:07:54.720Z,101324.45
2019-04-20T11:10:28.591Z,101332.83
2019-04-20T11:12:55.265Z,101334.54
2019-04-20T11:15:26.252Z,101325.63
2019-04-20T11:17:55.545Z,101319.41
2019-04-20T11:20:25.549Z,101319.77
2019-04-20T11:22:56.025Z,101316.07
2019-04-20T11:25:35.522Z,101308.16
2019-04-20T11:28:14.371Z,101305.45
2019-04-20T11:30:44.314Z,101306.30
2019-04-20T11:33:14.051Z,101306.83
2019-04-20T11:35:45.268Z,101295.20
2019-04-20T11:38:17.117Z,101298.01
2019-04-20T11:40:48.249Z,101292.31
2019-04-20T11:43:17.831Z,101291.00
2019-04-20T11:45:47.153Z,101289.76
2019-04-20T11:48:16.408Z,101290.97
2019-04-20T11:50:45.624Z,101272.62
2019-04-20T11:53:15.315Z,101276.98
2019-04-20T11:55:44.793Z,101271.98
2019-04-20T11:58:14.302Z,101257.84
2019-04-20T12:00:58.625Z,101262.16
2019-04-20T12:03:28.205Z,101260.56
2019-04-20T12:05:56.990Z,101251.25
2019-04-20T12:08:25.026Z,101245.48
2019-04-20T12:10:58.396Z,101242.00
2019-04-20T12:13:26.564Z,101239.38
2019-04-20T12:15:56.137Z,101234.95
2019-04-20T12:18:29.487Z,101229.30
2019-04-20T12:20:59.002Z,101227.40
2019-04-20T12:23:28.526Z,101220.36
2019-04-20T12:25:59.710Z,101217.80
2019-04-20T12:28:29.591Z,101221.56
2019-04-20T12:31:04.039Z,101225.86
2019-04-20T12:33:30.660Z,101218.12
2019-04-20T12:36:03.183Z,101208.92
2019-04-20T12:38:32.932Z,101214.59
2019-04-20T12:41:04.837Z,101213.75
2019-04-20T12:43:33.949Z,101217.77
2019-04-20T12:46:03.289Z,101214.94
2019-04-20T12:48:33.632Z,101218.61
2019-04-20T12:51:11.395Z,101212.91
2019-04-20T12:53:40.730Z,101208.96
2019-04-20T12:56:10.671Z,101207.23
2019-04-20T12:58:43.325Z,101202.80
2019-04-20T13:01:12.198Z,101202.48
2019-04-20T13:03:41.598Z,101195.53
2019-04-20T13:06:12.115Z,101193.31
2019-04-20T13:08:45.127Z,101190.48
2019-04-20T13:11:26.719Z,101187.36
2019-04-20T13:14:36.233Z,101175.59
2019-04-20T13:17:06.214Z,101171.44
2019-04-20T13:19:39.226Z,101173.05
2019-04-20T13:22:08.851Z,101180.09
2019-04-20T13:24:39.104Z,101171.67
2019-04-20T13:27:09.014Z,101163.11
2019-04-20T13:29:38.519Z,101169.03
2019-04-20T13:32:07.767Z,101162.66
2019-04-20T13:34:38.151Z,101161.21
2019-04-20T13:37:08.455Z,101165.14
2019-04-20T13:39:38.696Z,101159.33
2019-04-20T13:42:15.025Z,101162.08
2019-04-20T13:44:39.352Z,101156.77
2019-04-20T13:47:09.177Z,101150.28
2019-04-20T13:49:38.883Z,101151.69
2019-04-20T13:52:08.771Z,101148.19
2019-04-20T13:54:38.145Z,101136.56
2019-04-20T13:57:08.303Z,101137.66
2019-04-20T13:59:44.960Z,101132.88
2019-04-20T14:02:22.721Z,101140.62
2019-04-20T14:04:55.205Z,101131.53
2019-04-20T14:07:25.453Z,101136.65
2019-04-20T14:09:55.372Z,101126.07
2019-04-20T14:12:31.562Z,101128.58
2019-04-20T14:14:55.647Z,101130.49
2019-04-20T14:17:26.401Z,101126.66
2019-04-20T14:44:41.707Z,101083.67
2019-04-20T14:47:11.899Z,101084.81
2019-04-20T14:49:41.335Z,101073.10
2019-04-20T14:52:11.473Z,101073.76
2019-04-20T14:54:41.441Z,101068.72
2019-04-20T14:57:11.712Z,101063.80
2019-04-20T14:59:45.436Z,101067.80
2019-04-20T15:02:17.371Z,101065.89
2019-04-20T15:04:47.424Z,101061.21
2019-04-20T15:07:16.645Z,101059.25
2019-04-20T15:09:52.998Z,101055.23
2019-04-20T15:12:22.259Z,101051.85
2019-04-20T15:14:52.543Z,101052.42
2019-04-20T15:17:37.530Z,101039.30
2019-04-20T15:20:17.225Z,101038.28
2019-04-20T15:22:49.841Z,101043.07
2019-04-20T15:25:19.539Z,101041.42
2019-04-20T15:27:49.980Z,101044.72
2019-04-20T15:46:27.766Z,101029.27
2019-04-20T15:48:57.741Z,101027.97
2019-04-20T15:51:27.954Z,101023.00
2019-04-20T15:53:57.719Z,101029.71
2019-04-20T15:56:27.065Z,101028.12
2019-04-20T15:58:58.843Z,101025.12
2019-04-20T16:01:34.359Z,101024.30
2019-04-20T16:04:11.747Z,101019.46
2019-04-20T16:06:41.197Z,101024.61
2019-04-20T16:09:12.371Z,101021.50
2019-04-20T16:11:41.716Z,101017.55
2019-04-20T16:14:10.949Z,101011.30
2019-04-20T16:16:40.455Z,101007.20
2019-04-20T16:27:15.710Z,100999.55
2019-04-20T16:29:45.114Z,101000.49
2019-04-20T16:32:32.730Z,100991.36
2019-04-20T16:35:11.013Z,100991.20
2019-04-20T16:37:40.357Z,100990.16
2019-04-20T16:40:11.319Z,100984.41
2019-04-20T16:42:42.266Z,100985.52
2019-04-20T16:45:41.253Z,100976.95
2019-04-20T16:48:10.836Z,100981.39
2019-04-20T16:50:40.747Z,100979.95
2019-04-20T16:53:10.767Z,100976.59
2019-04-20T16:55:40.959Z,100968.48
2019-04-20T16:58:10.325Z,100964.89
2019-04-20T17:00:39.602Z,100963.76
2019-04-20T17:03:09.195Z,100960.05
2019-04-20T17:05:39.303Z,100952.81
2019-04-20T17:08:11.137Z,100957.50
2019-04-20T17:10:41.030Z,100953.29
2019-04-20T17:49:57.586Z,100930.95
2019-04-20T17:52:35.113Z,100927.80
2019-04-20T17:54:51.566Z,100933.03
2019-04-20T17:57:21.525Z,100935.50
2019-04-20T17:59:59.682Z,100934.37
2019-04-20T18:02:59.333Z,100934.86
2019-04-20T18:05:44.832Z,100881.66
2019-04-20T18:08:10.328Z,100934.34
2019-04-20T18:10:35.161Z,100929.90
2019-04-20T18:12:56.552Z,100930.72
2019-04-20T18:15:40.385Z,100935.69
2019-04-20T18:18:46.536Z,100939.27
2019-04-20T18:21:26.548Z,100935.16
2019-04-20T18:23:56.315Z,100938.60
2019-04-20T18:26:43.242Z,100936.30
2019-04-20T18:29:13.467Z,100932.97
2019-04-20T18:31:49.359Z,100939.69
2019-04-20T18:34:44.968Z,100939.33
2019-04-20T18:37:16.912Z,100935.70
2019-04-20T18:39:54.756Z,100933.66
2019-04-20T18:42:24.950Z,100939.95
2019-04-20T18:45:09.153Z,100939.23
2019-04-20T18:47:44.249Z,100941.16
2019-04-20T18:49:57.274Z,100941.00
2019-04-20T18:52:20.037Z,100938.56
2019-04-20T18:54:53.328Z,100943.20
2019-04-20T18:57:27.207Z,100936.00
2019-04-20T18:59:55.274Z,100944.51
2019-04-20T19:02:29.408Z,100947.77
2019-04-20T19:04:58.621Z,100941.25
2019-04-20T19:07:27.984Z,100948.90
2019-04-20T19:10:02.606Z,100944.33
2019-04-20T19:12:41.494Z,100924.38
2019-04-20T19:15:31.964Z,100942.91
2019-04-20T19:18:06.807Z,100942.91
2019-04-20T19:20:29.007Z,100950.80
2019-04-20T19:22:59.942Z,100944.07
2019-04-20T19:25:33.115Z,100954.27
2019-04-20T19:28:02.865Z,100957.35
2019-04-20T19:30:40.677Z,100953.09
2019-04-20T19:33:18.994Z,100951.81
2019-04-20T19:35:46.621Z,100939.65
2019-04-20T19:38:12.595Z,100954.92
2019-04-20T19:40:47.819Z,100954.90
2019-04-20T19:43:15.679Z,100962.43
2019-04-20T19:46:07.416Z,100957.83
2019-04-20T19:48:22.713Z,100960.20
2019-04-20T19:51:08.433Z,100957.61
2019-04-20T19:53:32.454Z,100961.43
2019-04-20T19:55:56.331Z,100961.25
2019-04-20T19:58:28.443Z,100955.77
2019-04-20T20:00:55.357Z,100956.98
2019-04-20T20:03:23.869Z,100956.98
2019-04-20T20:05:54.791Z,100949.72
2019-04-20T20:08:28.142Z,100955.17
2019-04-20T20:10:59.232Z,100955.17
2019-04-20T20:13:33.218Z,100957.69
2019-04-20T20:16:09.038Z,100953.66
2019-04-20T20:18:46.596Z,100952.83
2019-04-20T20:21:15.210Z,100953.41
2019-04-20T20:23:32.185Z,100958.14
2019-04-20T20:26:03.943Z,100954.05
2019-04-20T20:28:43.682Z,100954.16
2019-04-20T20:31:17.088Z,100958.87
2019-04-20T20:33:52.841Z,100954.84
2019-04-20T20:36:12.574Z,100957.08
2019-04-20T20:38:46.870Z,100966.41
2019-04-20T20:41:20.562Z,100963.41
2019-04-20T20:43:56.316Z,100961.76
2019-04-20T20:46:27.189Z,100961.00
2019-04-20T20:49:21.753Z,100966.73
2019-04-20T20:51:45.703Z,100964.00
2019-04-20T20:54:03.244Z,100974.97
2019-04-20T20:56:28.952Z,100973.66
2019-04-20T20:59:04.007Z,100968.81
2019-04-20T21:01:39.007Z,100970.00
2019-04-20T21:03:58.572Z,100965.66
2019-04-20T21:06:31.042Z,100972.83
2019-04-20T21:09:02.036Z,100972.36
2019-04-20T21:11:35.993Z,100967.47
2019-04-20T21:14:24.315Z,100968.00
2019-04-20T21:17:00.406Z,100971.30
2019-04-20T21:19:36.879Z,100974.55
2019-04-20T21:22:01.056Z,100970.95
2019-04-20T21:24:30.371Z,100970.67
2019-04-20T21:27:07.001Z,100976.43
2019-04-20T21:29:37.827Z,100977.48
2019-04-20T21:32:08.657Z,100981.56
2019-04-20T21:34:33.432Z,100979.30
2019-04-20T21:37:11.663Z,100982.55
2019-04-20T21:39:42.465Z,100978.38
2019-04-20T21:42:12.022Z,100982.47
2019-04-20T21:44:41.351Z,100978.30
2019-04-20T21:47:07.330Z,100980.75
2019-04-20T21:49:49.662Z,100984.87
2019-04-20T21:52:18.395Z,100983.48
2019-04-20T21:54:42.242Z,100992.80
2019-04-20T21:57:13.220Z,100987.84
2019-04-20T21:59:48.343Z,100991.02
2019-04-20T22:02:25.294Z,100992.39
2019-04-20T22:04:51.429Z,100988.16
2019-04-20T22:07:22.682Z,101000.84
2019-04-20T22:09:56.881Z,100997.20
2019-04-20T22:12:37.843Z,100990.88
2019-04-20T22:15:07.451Z,100994.62
2019-04-20T22:17:33.051Z,100992.55
2019-04-20T22:20:18.900Z,100998.07
2019-04-20T22:22:52.334Z,100995.91
2019-04-20T22:25:28.374Z,100996.07
2019-04-20T22:27:42.284Z,100988.47
2019-04-20T22:30:14.431Z,100989.48
2019-04-20T22:32:47.000Z,100990.00
2019-04-20T22:35:17.502Z,100985.52
2019-04-20T22:38:01.153Z,100979.03
2019-04-20T22:40:31.995Z,100969.94
2019-04-20T22:43:00.588Z,100971.55
2019-04-20T22:45:33.961Z,100958.64
2019-04-20T22:48:08.201Z,100958.22
2019-04-20T22:50:45.959Z,100957.34
2019-04-20T22:53:17.956Z,100936.48
2019-04-20T22:55:57.738Z,100953.03
2019-04-20T22:58:23.602Z,100952.69
2019-04-20T23:00:45.255Z,100949.43
2019-04-20T23:03:09.140Z,100945.64
2019-04-20T23:05:38.700Z,100944.49
2019-04-20T23:08:08.653Z,100943.88
2019-04-20T23:10:42.213Z,100937.33
2019-04-20T23:13:09.620Z,100934.48
2019-04-20T23:15:42.416Z,100934.64
2019-04-20T23:18:11.945Z,100924.96
2019-04-20T23:20:42.771Z,100929.72
2019-04-20T23:23:19.757Z,100922.55
2019-04-20T23:25:47.228Z,100921.56
2019-04-20T23:28:18.061Z,100915.95
2019-04-20T23:30:51.895Z,100918.82
2019-04-20T23:33:20.160Z,100909.98
2019-04-20T23:35:54.662Z,100898.34
2019-04-20T23:38:23.181Z,100894.87
2019-04-20T23:40:52.216Z,100889.22
2019-04-20T23:43:29.957Z,100890.53
2019-04-20T23:46:17.256Z,100890.97
2019-04-20T23:49:13.524Z,100879.86
2019-04-20T23:52:00.697Z,100878.22
2019-04-20T23:54:13.843Z,100873.70
2019-04-20T23:56:39.834Z,100866.08
2019-04-20T23:59:10.562Z,100872.45
